sensor_id;sensor_type;location;lat;lon;timestamp;temperature;humidity
19805;DHT22;10062;51.052;13.756;2022-12-01T00:00:32;2.70;1.00
19805;DHT22;10062;51.052;13.756;2022-12-01T00:03:04;2.70;1.00
19805;DHT22;10062;51.052;13.756;2022-12-01T00:05:36;2.70;1.00
19805;DHT22;10062;51.052;13.756;2022-12-01T00:08:07;2.60;1.00
19805;DHT22;10062;51.052;13.756;2022-12-01T00:10:39;2.60;1.00
19805;DHT22;10062;51.052;13.756;2022-12-01T00:13:12;2.70;1.00
19805;DHT22;10062;51.052;13.756;2022-12-01T00:15:44;2.60;1.00
19805;DHT22;10062;51.052;13.756;2022-12-01T00:18:16;2.60;1.00
19805;DHT22;10062;51.052;13.756;2022-12-01T00:20:47;2.60;1.00
19805;DHT22;10062;51.052;13.756;2022-12-01T00:23:25;2.60;1.00
19805;DHT22;10062;51.052;13.756;2022-12-01T00:26:01;2.50;1.00
19805;DHT22;10062;51.052;13.756;2022-12-01T00:28:35;2.20;1.00
19805;DHT22;10062;51.052;13.756;2022-12-01T00:31:07;1.90;1.00
19805;DHT22;10062;51.052;13.756;2022-12-01T00:33:39;2.10;1.00
19805;DHT22;10062;51.052;13.756;2022-12-01T00:36:10;2.10;1.00
19805;DHT22;10062;51.052;13.756;2022-12-01T00:38:42;2.00;1.00
19805;DHT22;10062;51.052;13.756;2022-12-01T00:41:14;2.10;1.00
19805;DHT22;10062;51.052;13.756;2022-12-01T00:43:48;2.20;1.00
19805;DHT22;10062;51.052;13.756;2022-12-01T00:46:20;2.20;1.00
19805;DHT22;10062;51.052;13.756;2022-12-01T00:48:52;2.20;1.00
19805;DHT22;10062;51.052;13.756;2022-12-01T00:51:24;2.20;1.00
19805;DHT22;10062;51.052;13.756;2022-12-01T00:53:57;2.20;1.00
19805;DHT22;10062;51.052;13.756;2022-12-01T00:56:28;2.30;1.00
19805;DHT22;10062;51.052;13.756;2022-12-01T00:59:02;2.30;1.00
19805;DHT22;10062;51.052;13.756;2022-12-01T01:01:34;2.40;1.00
19805;DHT22;10062;51.052;13.756;2022-12-01T01:04:06;2.40;1.00
19805;DHT22;10062;51.052;13.756;2022-12-01T01:06:38;2.40;1.00
19805;DHT22;10062;51.052;13.756;2022-12-01T01:09:11;2.40;1.00
19805;DHT22;10062;51.052;13.756;2022-12-01T01:11:43;2.40;1.00
19805;DHT22;10062;51.052;13.756;2022-12-01T01:14:16;2.40;1.00
19805;DHT22;10062;51.052;13.756;2022-12-01T01:16:47;2.40;1.00
19805;DHT22;10062;51.052;13.756;2022-12-01T01:19:19;2.30;1.00
19805;DHT22;10062;51.052;13.756;2022-12-01T01:21:51;2.30;1.00
19805;DHT22;10062;51.052;13.756;2022-12-01T01:24:23;2.30;1.00
19805;DHT22;10062;51.052;13.756;2022-12-01T01:26:55;2.20;1.00
19805;DHT22;10062;51.052;13.756;2022-12-01T01:29:28;2.20;1.00
19805;DHT22;10062;51.052;13.756;2022-12-01T01:32:00;2.20;1.00
19805;DHT22;10062;51.052;13.756;2022-12-01T01:34:31;2.20;1.00
19805;DHT22;10062;51.052;13.756;2022-12-01T01:37:03;2.20;1.00
19805;DHT22;10062;51.052;13.756;2022-12-01T01:39:35;2.20;1.00
19805;DHT22;10062;51.052;13.756;2022-12-01T01:42:08;2.10;1.00
19805;DHT22;10062;51.052;13.756;2022-12-01T01:44:48;2.10;1.00
19805;DHT22;10062;51.052;13.756;2022-12-01T01:47:23;2.10;1.00
19805;DHT22;10062;51.052;13.756;2022-12-01T01:49:58;2.20;1.00
19805;DHT22;10062;51.052;13.756;2022-12-01T01:52:37;2.10;1.00
19805;DHT22;10062;51.052;13.756;2022-12-01T01:55:11;2.10;1.00
19805;DHT22;10062;51.052;13.756;2022-12-01T01:57:44;2.20;1.00
19805;DHT22;10062;51.052;13.756;2022-12-01T02:00:19;2.20;1.00
19805;DHT22;10062;51.052;13.756;2022-12-01T02:02:52;2.20;1.00
19805;DHT22;10062;51.052;13.756;2022-12-01T02:05:25;2.10;1.00
19805;DHT22;10062;51.052;13.756;2022-12-01T02:07:59;2.20;1.00
19805;DHT22;10062;51.052;13.756;2022-12-01T02:10:36;2.10;1.00
19805;DHT22;10062;51.052;13.756;2022-12-01T02:13:18;2.10;1.00
19805;DHT22;10062;51.052;13.756;2022-12-01T02:16:06;2.10;1.00
19805;DHT22;10062;51.052;13.756;2022-12-01T02:18:48;2.10;1.00
19805;DHT22;10062;51.052;13.756;2022-12-01T02:21:32;2.10;1.00
19805;DHT22;10062;51.052;13.756;2022-12-01T02:24:32;2.20;1.00
19805;DHT22;10062;51.052;13.756;2022-12-01T02:27:07;2.20;1.00
19805;DHT22;10062;51.052;13.756;2022-12-01T02:30:03;2.10;1.00
19805;DHT22;10062;51.052;13.756;2022-12-01T02:32:46;2.00;1.00
19805;DHT22;10062;51.052;13.756;2022-12-01T02:35:24;1.80;1.00
19805;DHT22;10062;51.052;13.756;2022-12-01T02:38:07;1.80;1.00
19805;DHT22;10062;51.052;13.756;2022-12-01T02:40:43;1.80;1.00
19805;DHT22;10062;51.052;13.756;2022-12-01T02:43:23;1.90;1.00
19805;DHT22;10062;51.052;13.756;2022-12-01T02:46:01;1.90;1.00
19805;DHT22;10062;51.052;13.756;2022-12-01T02:48:38;1.80;1.00
19805;DHT22;10062;51.052;13.756;2022-12-01T02:51:14;1.90;1.00
19805;DHT22;10062;51.052;13.756;2022-12-01T02:53:47;1.80;1.00
19805;DHT22;10062;51.052;13.756;2022-12-01T02:56:21;1.90;1.00
19805;DHT22;10062;51.052;13.756;2022-12-01T02:58:53;1.90;1.00
19805;DHT22;10062;51.052;13.756;2022-12-01T03:01:35;1.90;1.00
19805;DHT22;10062;51.052;13.756;2022-12-01T03:04:25;2.00;1.00
19805;DHT22;10062;51.052;13.756;2022-12-01T03:07:09;2.00;1.00
19805;DHT22;10062;51.052;13.756;2022-12-01T03:09:49;2.10;1.00
19805;DHT22;10062;51.052;13.756;2022-12-01T03:12:28;2.10;1.00
19805;DHT22;10062;51.052;13.756;2022-12-01T03:15:09;2.10;1.00
19805;DHT22;10062;51.052;13.756;2022-12-01T03:17:46;2.00;1.00
19805;DHT22;10062;51.052;13.756;2022-12-01T03:20:24;2.00;1.00
19805;DHT22;10062;51.052;13.756;2022-12-01T03:23:03;2.00;1.00
19805;DHT22;10062;51.052;13.756;2022-12-01T03:25:41;1.90;1.00
19805;DHT22;10062;51.052;13.756;2022-12-01T03:28:15;1.90;1.00
19805;DHT22;10062;51.052;13.756;2022-12-01T03:30:51;1.80;1.00
19805;DHT22;10062;51.052;13.756;2022-12-01T03:33:27;1.80;1.00
19805;DHT22;10062;51.052;13.756;2022-12-01T03:36:07;1.80;1.00
19805;DHT22;10062;51.052;13.756;2022-12-01T03:38:47;1.80;1.00
19805;DHT22;10062;51.052;13.756;2022-12-01T03:41:21;1.90;1.00
19805;DHT22;10062;51.052;13.756;2022-12-01T03:44:00;1.80;1.00
19805;DHT22;10062;51.052;13.756;2022-12-01T03:46:40;1.80;1.00
19805;DHT22;10062;51.052;13.756;2022-12-01T03:49:17;1.90;1.00
19805;DHT22;10062;51.052;13.756;2022-12-01T03:52:02;1.80;1.00
19805;DHT22;10062;51.052;13.756;2022-12-01T03:54:44;1.80;1.00
19805;DHT22;10062;51.052;13.756;2022-12-01T03:57:24;1.80;1.00
19805;DHT22;10062;51.052;13.756;2022-12-01T03:59:57;1.80;1.00
19805;DHT22;10062;51.052;13.756;2022-12-01T04:02:29;1.90;1.00
19805;DHT22;10062;51.052;13.756;2022-12-01T04:05:01;1.90;1.00
19805;DHT22;10062;51.052;13.756;2022-12-01T04:07:36;2.00;1.00
19805;DHT22;10062;51.052;13.756;2022-12-01T04:10:08;1.90;1.00
19805;DHT22;10062;51.052;13.756;2022-12-01T04:12:40;1.90;1.00
19805;DHT22;10062;51.052;13.756;2022-12-01T04:15:12;1.90;1.00
19805;DHT22;10062;51.052;13.756;2022-12-01T04:17:44;1.90;1.00
19805;DHT22;10062;51.052;13.756;2022-12-01T04:20:16;1.80;1.00
19805;DHT22;10062;51.052;13.756;2022-12-01T04:22:49;1.80;1.00
19805;DHT22;10062;51.052;13.756;2022-12-01T04:25:21;1.80;1.00
19805;DHT22;10062;51.052;13.756;2022-12-01T04:27:53;1.90;1.00
19805;DHT22;10062;51.052;13.756;2022-12-01T04:30:25;1.80;1.00
19805;DHT22;10062;51.052;13.756;2022-12-01T04:32:57;1.90;1.00
19805;DHT22;10062;51.052;13.756;2022-12-01T04:35:28;1.80;1.00
19805;DHT22;10062;51.052;13.756;2022-12-01T04:38:02;1.80;1.00
19805;DHT22;10062;51.052;13.756;2022-12-01T04:40:33;1.90;1.00
19805;DHT22;10062;51.052;13.756;2022-12-01T04:43:05;1.80;1.00
19805;DHT22;10062;51.052;13.756;2022-12-01T04:45:37;1.90;1.00
19805;DHT22;10062;51.052;13.756;2022-12-01T04:48:09;1.90;1.00
19805;DHT22;10062;51.052;13.756;2022-12-01T04:50:40;1.90;1.00
19805;DHT22;10062;51.052;13.756;2022-12-01T04:53:14;1.90;1.00
19805;DHT22;10062;51.052;13.756;2022-12-01T04:55:45;1.90;1.00
19805;DHT22;10062;51.052;13.756;2022-12-01T04:58:17;2.00;1.00
19805;DHT22;10062;51.052;13.756;2022-12-01T05:00:49;1.90;1.00
19805;DHT22;10062;51.052;13.756;2022-12-01T05:03:21;1.80;1.00
19805;DHT22;10062;51.052;13.756;2022-12-01T05:06:00;1.90;1.00
19805;DHT22;10062;51.052;13.756;2022-12-01T05:08:33;1.80;1.00
19805;DHT22;10062;51.052;13.756;2022-12-01T05:11:06;1.80;1.00
19805;DHT22;10062;51.052;13.756;2022-12-01T05:13:39;1.90;1.00
19805;DHT22;10062;51.052;13.756;2022-12-01T05:16:12;2.00;1.00
19805;DHT22;10062;51.052;13.756;2022-12-01T05:18:47;2.00;1.00
19805;DHT22;10062;51.052;13.756;2022-12-01T05:21:19;1.90;1.00
19805;DHT22;10062;51.052;13.756;2022-12-01T05:23:51;1.90;1.00
19805;DHT22;10062;51.052;13.756;2022-12-01T05:26:23;1.90;1.00
19805;DHT22;10062;51.052;13.756;2022-12-01T05:28:55;1.90;1.00
19805;DHT22;10062;51.052;13.756;2022-12-01T05:31:27;1.90;1.00
19805;DHT22;10062;51.052;13.756;2022-12-01T05:33:58;1.80;1.00
19805;DHT22;10062;51.052;13.756;2022-12-01T05:36:31;1.70;1.00
19805;DHT22;10062;51.052;13.756;2022-12-01T05:39:04;1.70;1.00
19805;DHT22;10062;51.052;13.756;2022-12-01T05:41:36;1.70;1.00
19805;DHT22;10062;51.052;13.756;2022-12-01T05:44:08;1.80;1.00
19805;DHT22;10062;51.052;13.756;2022-12-01T05:46:39;1.90;1.00
19805;DHT22;10062;51.052;13.756;2022-12-01T05:49:11;1.90;1.00
19805;DHT22;10062;51.052;13.756;2022-12-01T05:51:43;2.00;1.00
19805;DHT22;10062;51.052;13.756;2022-12-01T05:54:17;2.70;1.00
19805;DHT22;10062;51.052;13.756;2022-12-01T05:56:49;4.40;1.00
19805;DHT22;10062;51.052;13.756;2022-12-01T05:59:23;1.90;1.00
19805;DHT22;10062;51.052;13.756;2022-12-01T06:01:56;1.80;1.00
19805;DHT22;10062;51.052;13.756;2022-12-01T06:04:27;1.80;1.00
19805;DHT22;10062;51.052;13.756;2022-12-01T06:06:59;1.80;1.00
19805;DHT22;10062;51.052;13.756;2022-12-01T06:09:32;1.70;1.00
19805;DHT22;10062;51.052;13.756;2022-12-01T06:12:04;1.70;1.00
19805;DHT22;10062;51.052;13.756;2022-12-01T06:14:36;1.80;1.00
19805;DHT22;10062;51.052;13.756;2022-12-01T06:17:08;1.80;1.00
19805;DHT22;10062;51.052;13.756;2022-12-01T06:19:40;1.90;1.00
19805;DHT22;10062;51.052;13.756;2022-12-01T06:22:12;1.90;1.00
19805;DHT22;10062;51.052;13.756;2022-12-01T06:24:46;3.00;1.00
19805;DHT22;10062;51.052;13.756;2022-12-01T06:27:17;2.00;1.00
19805;DHT22;10062;51.052;13.756;2022-12-01T06:29:49;1.90;1.00
19805;DHT22;10062;51.052;13.756;2022-12-01T06:32:21;1.90;1.00
19805;DHT22;10062;51.052;13.756;2022-12-01T06:34:53;2.00;1.00
19805;DHT22;10062;51.052;13.756;2022-12-01T06:37:26;2.00;1.00
19805;DHT22;10062;51.052;13.756;2022-12-01T06:39:59;1.90;1.00
19805;DHT22;10062;51.052;13.756;2022-12-01T06:42:30;1.80;1.00
19805;DHT22;10062;51.052;13.756;2022-12-01T06:45:03;1.80;1.00
19805;DHT22;10062;51.052;13.756;2022-12-01T06:47:35;1.80;1.00
19805;DHT22;10062;51.052;13.756;2022-12-01T06:50:07;1.80;1.00
19805;DHT22;10062;51.052;13.756;2022-12-01T06:52:39;1.80;1.00
19805;DHT22;10062;51.052;13.756;2022-12-01T06:55:13;1.80;1.00
19805;DHT22;10062;51.052;13.756;2022-12-01T06:57:45;2.20;1.00
19805;DHT22;10062;51.052;13.756;2022-12-01T07:00:17;1.80;1.00
19805;DHT22;10062;51.052;13.756;2022-12-01T07:02:49;1.90;1.00
19805;DHT22;10062;51.052;13.756;2022-12-01T07:05:21;1.80;1.00
19805;DHT22;10062;51.052;13.756;2022-12-01T07:07:53;1.80;1.00
19805;DHT22;10062;51.052;13.756;2022-12-01T07:10:26;1.80;1.00
19805;DHT22;10062;51.052;13.756;2022-12-01T07:12:58;1.80;1.00
19805;DHT22;10062;51.052;13.756;2022-12-01T07:15:30;1.80;1.00
19805;DHT22;10062;51.052;13.756;2022-12-01T07:18:02;1.80;1.00
19805;DHT22;10062;51.052;13.756;2022-12-01T07:20:33;1.90;1.00
19805;DHT22;10062;51.052;13.756;2022-12-01T07:23:05;1.90;1.00
19805;DHT22;10062;51.052;13.756;2022-12-01T07:25:38;1.90;1.00
19805;DHT22;10062;51.052;13.756;2022-12-01T07:28:10;1.90;1.00
19805;DHT22;10062;51.052;13.756;2022-12-01T07:30:42;1.90;1.00
19805;DHT22;10062;51.052;13.756;2022-12-01T07:33:14;1.90;1.00
19805;DHT22;10062;51.052;13.756;2022-12-01T07:35:45;1.90;1.00
19805;DHT22;10062;51.052;13.756;2022-12-01T07:38:17;1.80;1.00
19805;DHT22;10062;51.052;13.756;2022-12-01T07:40:50;1.80;1.00
19805;DHT22;10062;51.052;13.756;2022-12-01T07:43:22;1.80;1.00
19805;DHT22;10062;51.052;13.756;2022-12-01T07:45:54;1.70;1.00
19805;DHT22;10062;51.052;13.756;2022-12-01T07:48:28;1.80;1.00
19805;DHT22;10062;51.052;13.756;2022-12-01T07:51:00;1.90;1.00
19805;DHT22;10062;51.052;13.756;2022-12-01T07:53:32;1.80;1.00
19805;DHT22;10062;51.052;13.756;2022-12-01T07:56:06;1.90;1.00
19805;DHT22;10062;51.052;13.756;2022-12-01T07:58:38;1.90;1.00
19805;DHT22;10062;51.052;13.756;2022-12-01T08:01:11;1.90;1.00
19805;DHT22;10062;51.052;13.756;2022-12-01T08:03:43;1.90;1.00
19805;DHT22;10062;51.052;13.756;2022-12-01T08:06:15;1.90;1.00
19805;DHT22;10062;51.052;13.756;2022-12-01T08:08:47;1.90;1.00
19805;DHT22;10062;51.052;13.756;2022-12-01T08:11:23;2.00;1.00
19805;DHT22;10062;51.052;13.756;2022-12-01T08:13:55;2.00;1.00
19805;DHT22;10062;51.052;13.756;2022-12-01T08:16:27;2.00;1.00
19805;DHT22;10062;51.052;13.756;2022-12-01T08:19:00;2.00;1.00
19805;DHT22;10062;51.052;13.756;2022-12-01T08:21:32;2.30;1.00
19805;DHT22;10062;51.052;13.756;2022-12-01T08:24:04;2.00;1.00
19805;DHT22;10062;51.052;13.756;2022-12-01T08:26:37;1.90;1.00
19805;DHT22;10062;51.052;13.756;2022-12-01T08:29:09;1.90;1.00
19805;DHT22;10062;51.052;13.756;2022-12-01T08:31:41;1.90;1.00
19805;DHT22;10062;51.052;13.756;2022-12-01T08:34:12;2.10;1.00
19805;DHT22;10062;51.052;13.756;2022-12-01T08:36:44;2.10;1.00
19805;DHT22;10062;51.052;13.756;2022-12-01T08:39:16;2.20;1.00
19805;DHT22;10062;51.052;13.756;2022-12-01T08:41:49;2.10;1.00
19805;DHT22;10062;51.052;13.756;2022-12-01T08:44:21;2.10;1.00
19805;DHT22;10062;51.052;13.756;2022-12-01T08:46:53;2.20;1.00
19805;DHT22;10062;51.052;13.756;2022-12-01T08:49:24;2.10;1.00
19805;DHT22;10062;51.052;13.756;2022-12-01T08:51:56;2.10;1.00
19805;DHT22;10062;51.052;13.756;2022-12-01T08:54:28;2.10;1.00
19805;DHT22;10062;51.052;13.756;2022-12-01T08:57:01;2.10;1.00
19805;DHT22;10062;51.052;13.756;2022-12-01T08:59:33;2.10;1.00
19805;DHT22;10062;51.052;13.756;2022-12-01T09:02:05;2.30;1.00
19805;DHT22;10062;51.052;13.756;2022-12-01T09:04:40;2.20;1.00
19805;DHT22;10062;51.052;13.756;2022-12-01T09:07:12;2.30;1.00
19805;DHT22;10062;51.052;13.756;2022-12-01T09:09:46;2.30;1.00
19805;DHT22;10062;51.052;13.756;2022-12-01T09:12:19;2.20;1.00
19805;DHT22;10062;51.052;13.756;2022-12-01T09:14:51;2.10;1.00
19805;DHT22;10062;51.052;13.756;2022-12-01T09:17:23;2.10;1.00
19805;DHT22;10062;51.052;13.756;2022-12-01T09:19:55;2.10;1.00
19805;DHT22;10062;51.052;13.756;2022-12-01T09:22:27;2.10;1.00
19805;DHT22;10062;51.052;13.756;2022-12-01T09:24:58;2.10;1.00
19805;DHT22;10062;51.052;13.756;2022-12-01T09:27:31;2.10;1.00
19805;DHT22;10062;51.052;13.756;2022-12-01T09:30:05;2.10;1.00
19805;DHT22;10062;51.052;13.756;2022-12-01T09:32:36;2.10;1.00
19805;DHT22;10062;51.052;13.756;2022-12-01T09:35:08;2.10;1.00
19805;DHT22;10062;51.052;13.756;2022-12-01T09:37:40;2.20;1.00
19805;DHT22;10062;51.052;13.756;2022-12-01T09:40:14;2.20;1.00
19805;DHT22;10062;51.052;13.756;2022-12-01T09:42:47;2.20;1.00
19805;DHT22;10062;51.052;13.756;2022-12-01T09:45:23;2.20;1.00
19805;DHT22;10062;51.052;13.756;2022-12-01T09:47:58;2.20;1.00
19805;DHT22;10062;51.052;13.756;2022-12-01T09:50:30;2.30;1.00
19805;DHT22;10062;51.052;13.756;2022-12-01T09:53:06;2.30;1.00
19805;DHT22;10062;51.052;13.756;2022-12-01T09:55:38;2.30;1.00
19805;DHT22;10062;51.052;13.756;2022-12-01T09:58:16;2.20;1.00
19805;DHT22;10062;51.052;13.756;2022-12-01T10:00:49;2.90;1.00
19805;DHT22;10062;51.052;13.756;2022-12-01T10:03:29;2.30;1.00
19805;DHT22;10062;51.052;13.756;2022-12-01T10:06:05;2.30;1.00
19805;DHT22;10062;51.052;13.756;2022-12-01T10:08:42;2.20;1.00
19805;DHT22;10062;51.052;13.756;2022-12-01T10:11:26;2.00;1.00
19805;DHT22;10062;51.052;13.756;2022-12-01T10:14:03;2.10;1.00
19805;DHT22;10062;51.052;13.756;2022-12-01T10:16:39;2.10;1.00
19805;DHT22;10062;51.052;13.756;2022-12-01T10:19:16;2.10;1.00
19805;DHT22;10062;51.052;13.756;2022-12-01T10:24:52;2.00;1.00
19805;DHT22;10062;51.052;13.756;2022-12-01T10:27:45;2.00;1.00
19805;DHT22;10062;51.052;13.756;2022-12-01T10:30:21;2.00;1.00
19805;DHT22;10062;51.052;13.756;2022-12-01T10:32:55;1.90;1.00
19805;DHT22;10062;51.052;13.756;2022-12-01T10:35:30;1.80;1.00
19805;DHT22;10062;51.052;13.756;2022-12-01T10:38:14;1.80;1.00
19805;DHT22;10062;51.052;13.756;2022-12-01T10:40:48;1.90;1.00
19805;DHT22;10062;51.052;13.756;2022-12-01T10:43:25;2.00;1.00
19805;DHT22;10062;51.052;13.756;2022-12-01T10:46:05;2.00;1.00
19805;DHT22;10062;51.052;13.756;2022-12-01T10:48:51;2.10;1.00
19805;DHT22;10062;51.052;13.756;2022-12-01T10:51:25;2.10;1.00
19805;DHT22;10062;51.052;13.756;2022-12-01T10:53:58;2.20;1.00
19805;DHT22;10062;51.052;13.756;2022-12-01T10:56:31;2.10;1.00
19805;DHT22;10062;51.052;13.756;2022-12-01T10:59:21;2.20;1.00
19805;DHT22;10062;51.052;13.756;2022-12-01T11:01:55;2.20;1.00
19805;DHT22;10062;51.052;13.756;2022-12-01T11:04:37;2.10;1.00
19805;DHT22;10062;51.052;13.756;2022-12-01T11:07:21;2.10;1.00
19805;DHT22;10062;51.052;13.756;2022-12-01T11:10:02;2.10;1.00
19805;DHT22;10062;51.052;13.756;2022-12-01T11:12:35;2.00;1.00
19805;DHT22;10062;51.052;13.756;2022-12-01T11:15:15;3.10;1.00
19805;DHT22;10062;51.052;13.756;2022-12-01T11:17:56;2.00;1.00
19805;DHT22;10062;51.052;13.756;2022-12-01T11:20:31;2.00;1.00
19805;DHT22;10062;51.052;13.756;2022-12-01T11:23:21;2.00;1.00
19805;DHT22;10062;51.052;13.756;2022-12-01T11:25:58;1.90;1.00
19805;DHT22;10062;51.052;13.756;2022-12-01T11:28:32;1.80;1.00
19805;DHT22;10062;51.052;13.756;2022-12-01T11:31:07;1.80;1.00
19805;DHT22;10062;51.052;13.756;2022-12-01T11:33:45;1.80;1.00
19805;DHT22;10062;51.052;13.756;2022-12-01T11:36:20;1.90;1.00
19805;DHT22;10062;51.052;13.756;2022-12-01T11:38:58;1.90;1.00
19805;DHT22;10062;51.052;13.756;2022-12-01T11:41:34;1.90;1.00
19805;DHT22;10062;51.052;13.756;2022-12-01T11:44:15;2.00;1.00
19805;DHT22;10062;51.052;13.756;2022-12-01T11:46:48;2.10;1.00
19805;DHT22;10062;51.052;13.756;2022-12-01T11:49:23;2.10;1.00
19805;DHT22;10062;51.052;13.756;2022-12-01T11:51:56;2.00;1.00
19805;DHT22;10062;51.052;13.756;2022-12-01T11:54:28;2.00;1.00
19805;DHT22;10062;51.052;13.756;2022-12-01T11:56:59;2.00;1.00
19805;DHT22;10062;51.052;13.756;2022-12-01T11:59:31;2.00;1.00
19805;DHT22;10062;51.052;13.756;2022-12-01T12:02:16;2.10;1.00
19805;DHT22;10062;51.052;13.756;2022-12-01T12:07:53;2.30;1.00
19805;DHT22;10062;51.052;13.756;2022-12-01T12:10:36;2.30;1.00
19805;DHT22;10062;51.052;13.756;2022-12-01T12:13:29;2.30;1.00
19805;DHT22;10062;51.052;13.756;2022-12-01T12:16:11;2.20;1.00
19805;DHT22;10062;51.052;13.756;2022-12-01T12:19:06;2.20;1.00
19805;DHT22;10062;51.052;13.756;2022-12-01T12:22:01;2.20;1.00
19805;DHT22;10062;51.052;13.756;2022-12-01T12:24:43;2.30;1.00
19805;DHT22;10062;51.052;13.756;2022-12-01T12:27:25;2.30;1.00
19805;DHT22;10062;51.052;13.756;2022-12-01T12:30:08;2.30;1.00
19805;DHT22;10062;51.052;13.756;2022-12-01T12:33:22;3.30;1.00
19805;DHT22;10062;51.052;13.756;2022-12-01T12:36:06;2.30;1.00
19805;DHT22;10062;51.052;13.756;2022-12-01T12:38:53;2.30;1.00
19805;DHT22;10062;51.052;13.756;2022-12-01T12:41:35;2.20;1.00
19805;DHT22;10062;51.052;13.756;2022-12-01T12:44:23;2.20;1.00
19805;DHT22;10062;51.052;13.756;2022-12-01T12:47:08;2.10;1.00
19805;DHT22;10062;51.052;13.756;2022-12-01T12:49:44;2.10;1.00
19805;DHT22;10062;51.052;13.756;2022-12-01T12:52:22;2.00;1.00
19805;DHT22;10062;51.052;13.756;2022-12-01T12:55:00;2.10;1.00
19805;DHT22;10062;51.052;13.756;2022-12-01T12:57:37;2.00;1.00
19805;DHT22;10062;51.052;13.756;2022-12-01T13:00:15;2.00;1.00
19805;DHT22;10062;51.052;13.756;2022-12-01T13:02:52;2.00;1.00
19805;DHT22;10062;51.052;13.756;2022-12-01T13:05:28;2.10;1.00
19805;DHT22;10062;51.052;13.756;2022-12-01T13:08:05;2.20;1.00
19805;DHT22;10062;51.052;13.756;2022-12-01T13:10:48;2.30;1.00
19805;DHT22;10062;51.052;13.756;2022-12-01T13:13:24;2.30;1.00
19805;DHT22;10062;51.052;13.756;2022-12-01T13:16:00;2.30;1.00
19805;DHT22;10062;51.052;13.756;2022-12-01T13:18:35;2.30;1.00
19805;DHT22;10062;51.052;13.756;2022-12-01T13:21:14;2.30;1.00
19805;DHT22;10062;51.052;13.756;2022-12-01T13:23:48;2.30;1.00
19805;DHT22;10062;51.052;13.756;2022-12-01T13:26:22;2.20;1.00
19805;DHT22;10062;51.052;13.756;2022-12-01T13:28:55;2.20;1.00
19805;DHT22;10062;51.052;13.756;2022-12-01T13:31:28;2.20;1.00
19805;DHT22;10062;51.052;13.756;2022-12-01T13:34:02;2.10;1.00
19805;DHT22;10062;51.052;13.756;2022-12-01T13:36:34;1.70;1.00
19805;DHT22;10062;51.052;13.756;2022-12-01T13:39:17;2.10;1.00
19805;DHT22;10062;51.052;13.756;2022-12-01T13:41:59;2.10;1.00
19805;DHT22;10062;51.052;13.756;2022-12-01T13:44:37;3.00;1.00
19805;DHT22;10062;51.052;13.756;2022-12-01T13:53:34;2.20;1.00
19805;DHT22;10062;51.052;13.756;2022-12-01T13:56:25;2.20;1.00
19805;DHT22;10062;51.052;13.756;2022-12-01T13:58:58;2.20;1.00
19805;DHT22;10062;51.052;13.756;2022-12-01T14:01:46;2.20;1.00
19805;DHT22;10062;51.052;13.756;2022-12-01T14:04:29;2.20;1.00
19805;DHT22;10062;51.052;13.756;2022-12-01T14:07:20;2.20;1.00
19805;DHT22;10062;51.052;13.756;2022-12-01T14:09:56;2.20;1.00
19805;DHT22;10062;51.052;13.756;2022-12-01T14:12:29;2.10;1.00
19805;DHT22;10062;51.052;13.756;2022-12-01T14:15:27;2.10;1.00
19805;DHT22;10062;51.052;13.756;2022-12-01T14:18:03;2.00;1.00
19805;DHT22;10062;51.052;13.756;2022-12-01T14:20:43;2.00;1.00
19805;DHT22;10062;51.052;13.756;2022-12-01T14:23:25;2.00;1.00
19805;DHT22;10062;51.052;13.756;2022-12-01T14:26:08;2.00;1.00
19805;DHT22;10062;51.052;13.756;2022-12-01T14:29:23;2.10;1.00
19805;DHT22;10062;51.052;13.756;2022-12-01T14:35:02;2.10;1.00
19805;DHT22;10062;51.052;13.756;2022-12-01T14:37:38;2.10;1.00
19805;DHT22;10062;51.052;13.756;2022-12-01T14:40:16;2.00;1.00
19805;DHT22;10062;51.052;13.756;2022-12-01T14:42:52;2.10;1.00
19805;DHT22;10062;51.052;13.756;2022-12-01T14:45:53;2.00;1.00
19805;DHT22;10062;51.052;13.756;2022-12-01T14:48:34;2.00;1.00
19805;DHT22;10062;51.052;13.756;2022-12-01T14:51:17;2.00;1.00
19805;DHT22;10062;51.052;13.756;2022-12-01T14:53:51;1.90;1.00
19805;DHT22;10062;51.052;13.756;2022-12-01T14:56:25;1.90;1.00
19805;DHT22;10062;51.052;13.756;2022-12-01T14:59:00;1.90;1.00
19805;DHT22;10062;51.052;13.756;2022-12-01T15:01:35;2.00;1.00
19805;DHT22;10062;51.052;13.756;2022-12-01T15:04:09;1.90;1.00
19805;DHT22;10062;51.052;13.756;2022-12-01T15:06:41;1.90;1.00
19805;DHT22;10062;51.052;13.756;2022-12-01T15:09:15;1.90;1.00
19805;DHT22;10062;51.052;13.756;2022-12-01T15:11:50;1.90;1.00
19805;DHT22;10062;51.052;13.756;2022-12-01T15:14:28;1.80;1.00
19805;DHT22;10062;51.052;13.756;2022-12-01T15:17:01;1.80;1.00
19805;DHT22;10062;51.052;13.756;2022-12-01T15:19:37;1.80;1.00
19805;DHT22;10062;51.052;13.756;2022-12-01T15:22:12;1.70;1.00
19805;DHT22;10062;51.052;13.756;2022-12-01T15:24:44;1.70;1.00
19805;DHT22;10062;51.052;13.756;2022-12-01T15:27:24;1.70;1.00
19805;DHT22;10062;51.052;13.756;2022-12-01T15:29:58;1.80;1.00
19805;DHT22;10062;51.052;13.756;2022-12-01T15:32:34;1.80;1.00
19805;DHT22;10062;51.052;13.756;2022-12-01T15:35:17;1.80;1.00
19805;DHT22;10062;51.052;13.756;2022-12-01T15:37:50;1.80;1.00
19805;DHT22;10062;51.052;13.756;2022-12-01T15:40:22;1.70;1.00
19805;DHT22;10062;51.052;13.756;2022-12-01T15:43:02;1.70;1.00
19805;DHT22;10062;51.052;13.756;2022-12-01T15:45:45;1.80;1.00
19805;DHT22;10062;51.052;13.756;2022-12-01T15:48:25;1.80;1.00
19805;DHT22;10062;51.052;13.756;2022-12-01T16:01:44;1.50;1.00
19805;DHT22;10062;51.052;13.756;2022-12-01T16:05:26;2.20;1.00
19805;DHT22;10062;51.052;13.756;2022-12-01T16:09:17;2.00;1.00
19805;DHT22;10062;51.052;13.756;2022-12-01T16:12:18;2.30;1.00
19805;DHT22;10062;51.052;13.756;2022-12-01T16:15:04;1.70;1.00
19805;DHT22;10062;51.052;13.756;2022-12-01T16:17:42;1.60;1.00
19805;DHT22;10062;51.052;13.756;2022-12-01T16:20:21;1.60;1.00
19805;DHT22;10062;51.052;13.756;2022-12-01T16:22:55;1.50;1.00
19805;DHT22;10062;51.052;13.756;2022-12-01T16:25:33;1.50;1.00
19805;DHT22;10062;51.052;13.756;2022-12-01T16:28:18;1.60;1.00
19805;DHT22;10062;51.052;13.756;2022-12-01T16:30:51;1.60;1.00
19805;DHT22;10062;51.052;13.756;2022-12-01T16:33:26;1.60;1.00
19805;DHT22;10062;51.052;13.756;2022-12-01T16:36:01;1.60;1.00
19805;DHT22;10062;51.052;13.756;2022-12-01T16:38:33;1.60;1.00
19805;DHT22;10062;51.052;13.756;2022-12-01T16:41:14;1.60;1.00
19805;DHT22;10062;51.052;13.756;2022-12-01T16:43:47;0.40;1.00
19805;DHT22;10062;51.052;13.756;2022-12-01T16:46:19;1.60;1.00
19805;DHT22;10062;51.052;13.756;2022-12-01T16:48:51;1.60;1.00
19805;DHT22;10062;51.052;13.756;2022-12-01T16:51:22;1.60;1.00
19805;DHT22;10062;51.052;13.756;2022-12-01T16:53:54;1.70;1.00
19805;DHT22;10062;51.052;13.756;2022-12-01T16:56:26;1.70;1.00
19805;DHT22;10062;51.052;13.756;2022-12-01T16:58:59;1.70;1.00
19805;DHT22;10062;51.052;13.756;2022-12-01T17:01:31;1.60;1.00
19805;DHT22;10062;51.052;13.756;2022-12-01T17:04:03;1.60;1.00
19805;DHT22;10062;51.052;13.756;2022-12-01T17:06:35;1.70;1.00